sensor_id;sensor_type;location;lat;lon;timestamp;pressure;altitude;pressure_sealevel;temperature;humidity
41596;BME280;27283;52.504;13.358;2024-03-22T00:00:09;101722.38;;;10.57;75.19
41596;BME280;27283;52.504;13.358;2024-03-22T00:02:58;101711.19;;;10.52;76.01
41596;BME280;27283;52.504;13.358;2024-03-22T00:05:26;101706.09;;;10.39;75.89
41596;BME280;27283;52.504;13.358;2024-03-22T00:07:53;101698.53;;;11.01;73.27
41596;BME280;27283;52.504;13.358;2024-03-22T00:10:21;101705.09;;;10.69;73.31
41596;BME280;27283;52.504;13.358;2024-03-22T00:12:49;101715.22;;;10.26;75.67
41596;BME280;27283;52.504;13.358;2024-03-22T00:15:20;101708.59;;;10.31;76.42
41596;BME280;27283;52.504;13.358;2024-03-22T00:17:47;101711.06;;;10.43;76.43
41596;BME280;27283;52.504;13.358;2024-03-22T00:20:15;101710.81;;;9.86;77.53
41596;BME280;27283;52.504;13.358;2024-03-22T00:22:42;101711.16;;;9.72;78.74
41596;BME280;27283;52.504;13.358;2024-03-22T00:25:10;101700.69;;;9.59;79.99
41596;BME280;27283;52.504;13.358;2024-03-22T00:27:37;101694.28;;;9.91;78.75
41596;BME280;27283;52.504;13.358;2024-03-22T00:30:06;101691.72;;;9.89;79.07
41596;BME280;27283;52.504;13.358;2024-03-22T00:32:36;101674.06;;;9.97;78.84
41596;BME280;27283;52.504;13.358;2024-03-22T00:35:05;101678.34;;;10.48;77.47
41596;BME280;27283;52.504;13.358;2024-03-22T00:37:32;101673.38;;;10.73;75.23
41596;BME280;27283;52.504;13.358;2024-03-22T00:40:01;101665.63;;;10.40;77.02
41596;BME280;27283;52.504;13.358;2024-03-22T00:42:28;101675.78;;;10.56;76.93
41596;BME280;27283;52.504;13.358;2024-03-22T00:44:57;101675.78;;;10.66;75.38
41596;BME280;27283;52.504;13.358;2024-03-22T00:47:25;101666.84;;;10.66;76.02
41596;BME280;27283;52.504;13.358;2024-03-22T00:49:56;101667.28;;;10.61;77.52
41596;BME280;27283;52.504;13.358;2024-03-22T00:52:24;101665.25;;;11.02;75.17
41596;BME280;27283;52.504;13.358;2024-03-22T00:54:52;101666.81;;;10.85;74.92
41596;BME280;27283;52.504;13.358;2024-03-22T00:57:20;101661.88;;;10.90;75.13
41596;BME280;27283;52.504;13.358;2024-03-22T00:59:49;101664.28;;;11.31;73.38
41596;BME280;27283;52.504;13.358;2024-03-22T01:02:20;101651.22;;;11.36;72.52
41596;BME280;27283;52.504;13.358;2024-03-22T01:06:15;101649.09;;;11.02;73.73
41596;BME280;27283;52.504;13.358;2024-03-22T01:09:27;101651.63;;;11.04;74.60
41596;BME280;27283;52.504;13.358;2024-03-22T01:12:40;101645.06;;;11.44;72.23
41596;BME280;27283;52.504;13.358;2024-03-22T01:15:45;101644.38;;;11.42;72.89
41596;BME280;27283;52.504;13.358;2024-03-22T01:18:24;101636.81;;;10.80;74.83
41596;BME280;27283;52.504;13.358;2024-03-22T01:21:16;101637.00;;;11.06;75.26
41596;BME280;27283;52.504;13.358;2024-03-22T01:23:44;101643.41;;;10.38;77.62
41596;BME280;27283;52.504;13.358;2024-03-22T01:26:12;101629.75;;;10.79;76.93
41596;BME280;27283;52.504;13.358;2024-03-22T01:28:40;101631.69;;;10.96;76.41
41596;BME280;27283;52.504;13.358;2024-03-22T01:31:08;101630.50;;;10.52;78.09
41596;BME280;27283;52.504;13.358;2024-03-22T01:33:36;101626.00;;;10.99;76.43
41596;BME280;27283;52.504;13.358;2024-03-22T01:36:04;101621.53;;;10.80;77.93
41596;BME280;27283;52.504;13.358;2024-03-22T01:38:35;101629.16;;;10.85;77.67
41596;BME280;27283;52.504;13.358;2024-03-22T01:41:03;101615.31;;;10.70;77.76
41596;BME280;27283;52.504;13.358;2024-03-22T01:43:32;101622.09;;;10.84;77.75
41596;BME280;27283;52.504;13.358;2024-03-22T01:46:01;101615.31;;;10.80;78.12
41596;BME280;27283;52.504;13.358;2024-03-22T01:48:30;101608.41;;;10.58;78.03
41596;BME280;27283;52.504;13.358;2024-03-22T01:50:58;101608.38;;;10.77;77.56
41596;BME280;27283;52.504;13.358;2024-03-22T01:53:26;101605.75;;;10.95;77.31
41596;BME280;27283;52.504;13.358;2024-03-22T01:55:57;101611.19;;;10.86;77.52
41596;BME280;27283;52.504;13.358;2024-03-22T01:58:24;101596.09;;;10.65;78.62
41596;BME280;27283;52.504;13.358;2024-03-22T02:00:52;101604.59;;;10.51;78.93
41596;BME280;27283;52.504;13.358;2024-03-22T02:03:20;101598.97;;;10.44;79.19
41596;BME280;27283;52.504;13.358;2024-03-22T02:05:47;101597.31;;;10.80;77.68
41596;BME280;27283;52.504;13.358;2024-03-22T02:08:15;101598.28;;;10.89;77.80
41596;BME280;27283;52.504;13.358;2024-03-22T02:10:43;101591.94;;;10.80;77.97
41596;BME280;27283;52.504;13.358;2024-03-22T02:13:13;101580.97;;;10.54;78.31
41596;BME280;27283;52.504;13.358;2024-03-22T02:15:41;101585.66;;;10.33;79.29
41596;BME280;27283;52.504;13.358;2024-03-22T02:18:09;101579.56;;;10.60;79.54
41596;BME280;27283;52.504;13.358;2024-03-22T02:20:36;101583.22;;;10.29;79.47
41596;BME280;27283;52.504;13.358;2024-03-22T02:23:04;101578.88;;;10.48;79.21
41596;BME280;27283;52.504;13.358;2024-03-22T02:25:34;101576.75;;;10.42;80.25
41596;BME280;27283;52.504;13.358;2024-03-22T02:28:02;101570.94;;;10.17;79.80
41596;BME280;27283;52.504;13.358;2024-03-22T02:30:31;101552.00;;;10.28;79.73
41596;BME280;27283;52.504;13.358;2024-03-22T02:32:59;101557.66;;;10.45;79.16
41596;BME280;27283;52.504;13.358;2024-03-22T02:35:26;101554.09;;;10.54;78.74
41596;BME280;27283;52.504;13.358;2024-03-22T02:37:54;101544.41;;;10.71;76.70
41596;BME280;27283;52.504;13.358;2024-03-22T02:40:22;101543.28;;;11.02;76.45
41596;BME280;27283;52.504;13.358;2024-03-22T02:42:52;101540.19;;;10.59;76.69
41596;BME280;27283;52.504;13.358;2024-03-22T02:45:19;101538.41;;;10.30;78.64
41596;BME280;27283;52.504;13.358;2024-03-22T02:47:47;101538.00;;;10.35;78.25
41596;BME280;27283;52.504;13.358;2024-03-22T02:50:15;101542.06;;;10.49;77.47
41596;BME280;27283;52.504;13.358;2024-03-22T02:52:44;101537.75;;;10.75;76.97
41596;BME280;27283;52.504;13.358;2024-03-22T02:55:11;101539.06;;;10.61;77.63
41596;BME280;27283;52.504;13.358;2024-03-22T02:57:39;101532.88;;;10.41;78.61
41596;BME280;27283;52.504;13.358;2024-03-22T03:00:10;101520.75;;;10.37;78.58
41596;BME280;27283;52.504;13.358;2024-03-22T03:02:38;101531.75;;;10.54;77.37
41596;BME280;27283;52.504;13.358;2024-03-22T03:05:11;101517.41;;;10.63;76.75
41596;BME280;27283;52.504;13.358;2024-03-22T03:07:38;101515.75;;;10.42;77.55
41596;BME280;27283;52.504;13.358;2024-03-22T03:10:07;101513.41;;;10.10;79.28
41596;BME280;27283;52.504;13.358;2024-03-22T03:12:34;101506.88;;;10.70;76.62
41596;BME280;27283;52.504;13.358;2024-03-22T03:15:02;101501.88;;;10.47;76.89
41596;BME280;27283;52.504;13.358;2024-03-22T03:17:33;101498.06;;;10.50;76.19
41596;BME280;27283;52.504;13.358;2024-03-22T03:20:00;101489.63;;;10.15;77.47
41596;BME280;27283;52.504;13.358;2024-03-22T03:22:28;101491.28;;;10.45;75.84
41596;BME280;27283;52.504;13.358;2024-03-22T03:24:58;101491.34;;;10.63;75.70
41596;BME280;27283;52.504;13.358;2024-03-22T03:27:26;101477.31;;;10.22;77.68
41596;BME280;27283;52.504;13.358;2024-03-22T03:29:53;101470.22;;;10.41;77.31
41596;BME280;27283;52.504;13.358;2024-03-22T03:32:21;101466.16;;;10.64;76.07
41596;BME280;27283;52.504;13.358;2024-03-22T03:34:51;101444.59;;;10.46;76.07
41596;BME280;27283;52.504;13.358;2024-03-22T03:37:19;101452.69;;;10.92;74.26
41596;BME280;27283;52.504;13.358;2024-03-22T03:39:46;101453.31;;;10.76;75.21
41596;BME280;27283;52.504;13.358;2024-03-22T03:42:14;101454.16;;;10.49;76.49
41596;BME280;27283;52.504;13.358;2024-03-22T03:44:41;101456.00;;;10.58;75.45
41596;BME280;27283;52.504;13.358;2024-03-22T03:47:09;101457.94;;;10.66;75.29
41596;BME280;27283;52.504;13.358;2024-03-22T03:49:37;101454.50;;;11.20;72.82
41596;BME280;27283;52.504;13.358;2024-03-22T03:52:13;101451.44;;;10.87;74.41
41596;BME280;27283;52.504;13.358;2024-03-22T03:54:42;101436.41;;;10.66;74.45
41596;BME280;27283;52.504;13.358;2024-03-22T03:57:11;101430.75;;;10.69;74.29
41596;BME280;27283;52.504;13.358;2024-03-22T03:59:38;101421.19;;;10.75;74.43
41596;BME280;27283;52.504;13.358;2024-03-22T04:02:07;101424.75;;;10.75;74.43
41596;BME280;27283;52.504;13.358;2024-03-22T04:04:34;101431.34;;;10.63;75.27
41596;BME280;27283;52.504;13.358;2024-03-22T04:07:03;101430.44;;;10.72;74.52
41596;BME280;27283;52.504;13.358;2024-03-22T04:09:33;101421.38;;;10.91;73.49
41596;BME280;27283;52.504;13.358;2024-03-22T04:12:02;101408.50;;;10.29;75.79
41596;BME280;27283;52.504;13.358;2024-03-22T04:14:29;101405.63;;;10.51;74.95
41596;BME280;27283;52.504;13.358;2024-03-22T04:16:57;101411.31;;;10.75;74.31
41596;BME280;27283;52.504;13.358;2024-03-22T04:19:25;101403.66;;;10.53;75.01
41596;BME280;27283;52.504;13.358;2024-03-22T04:21:53;101412.25;;;10.56;74.72
41596;BME280;27283;52.504;13.358;2024-03-22T04:24:39;101408.25;;;10.33;75.37
41596;BME280;27283;52.504;13.358;2024-03-22T04:27:07;101405.19;;;11.01;73.45
41596;BME280;27283;52.504;13.358;2024-03-22T04:29:35;101403.13;;;10.67;74.19
41596;BME280;27283;52.504;13.358;2024-03-22T04:32:06;101394.34;;;10.47;74.36
41596;BME280;27283;52.504;13.358;2024-03-22T04:34:42;101384.88;;;10.71;74.68
41596;BME280;27283;52.504;13.358;2024-03-22T04:37:10;101380.22;;;10.35;74.79
41596;BME280;27283;52.504;13.358;2024-03-22T04:39:42;101387.28;;;10.64;73.29
41596;BME280;27283;52.504;13.358;2024-03-22T04:42:13;101381.53;;;10.59;73.82
41596;BME280;27283;52.504;13.358;2024-03-22T04:44:41;101364.63;;;10.67;73.80
41596;BME280;27283;52.504;13.358;2024-03-22T04:47:09;101368.84;;;10.51;73.88
41596;BME280;27283;52.504;13.358;2024-03-22T04:49:38;101371.97;;;10.46;74.21
41596;BME280;27283;52.504;13.358;2024-03-22T04:52:06;101366.81;;;11.17;72.68
41596;BME280;27283;52.504;13.358;2024-03-22T04:54:34;101367.22;;;11.04;71.62
41596;BME280;27283;52.504;13.358;2024-03-22T04:57:05;101360.88;;;10.77;73.05
41596;BME280;27283;52.504;13.358;2024-03-22T04:59:33;101357.03;;;10.62;73.72
41596;BME280;27283;52.504;13.358;2024-03-22T05:02:01;101359.84;;;10.42;74.33
41596;BME280;27283;52.504;13.358;2024-03-22T05:04:30;101355.34;;;10.79;73.00
41596;BME280;27283;52.504;13.358;2024-03-22T05:06:58;101352.44;;;10.90;72.25
41596;BME280;27283;52.504;13.358;2024-03-22T05:09:25;101353.88;;;10.67;73.18
41596;BME280;27283;52.504;13.358;2024-03-22T05:11:54;101355.22;;;10.98;72.20
41596;BME280;27283;52.504;13.358;2024-03-22T05:14:24;101354.38;;;10.52;73.90
41596;BME280;27283;52.504;13.358;2024-03-22T05:16:52;101352.97;;;10.94;72.09
41596;BME280;27283;52.504;13.358;2024-03-22T05:19:20;101353.09;;;10.56;73.16
41596;BME280;27283;52.504;13.358;2024-03-22T05:21:48;101349.22;;;10.41;73.08
41596;BME280;27283;52.504;13.358;2024-03-22T05:24:16;101346.44;;;10.60;73.24
41596;BME280;27283;52.504;13.358;2024-03-22T05:26:46;101341.75;;;10.98;70.69
41596;BME280;27283;52.504;13.358;2024-03-22T05:29:14;101331.06;;;11.25;70.25
41596;BME280;27283;52.504;13.358;2024-03-22T05:31:49;101324.69;;;10.72;73.42
41596;BME280;27283;52.504;13.358;2024-03-22T05:34:35;101322.84;;;10.54;73.90
41596;BME280;27283;52.504;13.358;2024-03-22T05:37:04;101323.63;;;11.01;71.90
41596;BME280;27283;52.504;13.358;2024-03-22T05:39:31;101322.44;;;10.85;71.65
41596;BME280;27283;52.504;13.358;2024-03-22T05:42:01;101322.13;;;11.24;70.16
41596;BME280;27283;52.504;13.358;2024-03-22T05:44:28;101320.50;;;11.31;70.43
41596;BME280;27283;52.504;13.358;2024-03-22T05:46:59;101317.81;;;11.58;69.76
41596;BME280;27283;52.504;13.358;2024-03-22T05:49:27;101313.84;;;10.99;70.64
41596;BME280;27283;52.504;13.358;2024-03-22T05:51:55;101311.28;;;11.34;69.65
41596;BME280;27283;52.504;13.358;2024-03-22T05:54:23;101307.56;;;11.35;68.24
41596;BME280;27283;52.504;13.358;2024-03-22T05:56:51;101296.72;;;11.01;70.23
41596;BME280;27283;52.504;13.358;2024-03-22T05:59:19;101296.19;;;11.76;68.45
41596;BME280;27283;52.504;13.358;2024-03-22T06:01:49;101297.94;;;11.50;69.66
41596;BME280;27283;52.504;13.358;2024-03-22T06:04:43;101291.78;;;11.40;69.62
41596;BME280;27283;52.504;13.358;2024-03-22T06:07:12;101291.75;;;11.14;70.81
41596;BME280;27283;52.504;13.358;2024-03-22T06:09:40;101284.13;;;11.27;69.15
41596;BME280;27283;52.504;13.358;2024-03-22T06:12:13;101283.38;;;11.17;71.13
41596;BME280;27283;52.504;13.358;2024-03-22T06:14:41;101283.38;;;11.69;69.01
41596;BME280;27283;52.504;13.358;2024-03-22T06:17:10;101280.41;;;11.55;69.77
41596;BME280;27283;52.504;13.358;2024-03-22T06:19:41;101267.94;;;12.14;67.71
41596;BME280;27283;52.504;13.358;2024-03-22T06:22:13;101269.31;;;11.58;68.26
41596;BME280;27283;52.504;13.358;2024-03-22T06:24:41;101267.97;;;11.88;67.28
41596;BME280;27283;52.504;13.358;2024-03-22T06:27:09;101267.06;;;11.97;65.27
41596;BME280;27283;52.504;13.358;2024-03-22T06:29:36;101270.41;;;11.99;65.23
41596;BME280;27283;52.504;13.358;2024-03-22T06:32:06;101267.59;;;11.75;66.80
41596;BME280;27283;52.504;13.358;2024-03-22T06:34:51;101268.81;;;11.88;66.12
41596;BME280;27283;52.504;13.358;2024-03-22T06:37:19;101264.56;;;11.43;67.86
41596;BME280;27283;52.504;13.358;2024-03-22T06:39:47;101261.91;;;11.86;66.73
41596;BME280;27283;52.504;13.358;2024-03-22T06:42:15;101258.28;;;11.43;68.33
41596;BME280;27283;52.504;13.358;2024-03-22T06:44:43;101257.56;;;11.59;68.13
41596;BME280;27283;52.504;13.358;2024-03-22T06:47:11;101255.78;;;11.76;67.74
41596;BME280;27283;52.504;13.358;2024-03-22T06:49:39;101253.66;;;11.87;67.20
41596;BME280;27283;52.504;13.358;2024-03-22T06:52:26;101250.88;;;12.05;67.00
41596;BME280;27283;52.504;13.358;2024-03-22T06:54:54;101253.22;;;11.66;68.98
41596;BME280;27283;52.504;13.358;2024-03-22T06:57:22;101245.19;;;12.09;66.19
41596;BME280;27283;52.504;13.358;2024-03-22T06:59:50;101240.09;;;11.71;66.69
41596;BME280;27283;52.504;13.358;2024-03-22T07:02:18;101245.38;;;12.15;66.21
41596;BME280;27283;52.504;13.358;2024-03-22T07:04:51;101236.44;;;11.80;67.85
41596;BME280;27283;52.504;13.358;2024-03-22T07:07:19;101238.09;;;12.08;67.41
41596;BME280;27283;52.504;13.358;2024-03-22T07:09:49;101243.47;;;12.08;66.22
41596;BME280;27283;52.504;13.358;2024-03-22T07:12:18;101236.25;;;12.08;66.67
41596;BME280;27283;52.504;13.358;2024-03-22T07:14:53;101235.72;;;12.04;66.53
41596;BME280;27283;52.504;13.358;2024-03-22T07:17:21;101228.59;;;12.38;65.30
41596;BME280;27283;52.504;13.358;2024-03-22T07:19:49;101234.97;;;12.37;64.98
41596;BME280;27283;52.504;13.358;2024-03-22T07:22:17;101231.31;;;11.95;66.94
41596;BME280;27283;52.504;13.358;2024-03-22T07:24:45;101231.09;;;12.48;65.40
41596;BME280;27283;52.504;13.358;2024-03-22T07:27:15;101232.06;;;12.22;66.17
41596;BME280;27283;52.504;13.358;2024-03-22T07:29:44;101223.03;;;12.39;65.54
41596;BME280;27283;52.504;13.358;2024-03-22T07:32:12;101226.38;;;12.41;65.50
41596;BME280;27283;52.504;13.358;2024-03-22T07:34:45;101225.03;;;12.46;67.15
41596;BME280;27283;52.504;13.358;2024-03-22T07:37:15;101227.75;;;12.70;63.40
41596;BME280;27283;52.504;13.358;2024-03-22T07:39:43;101229.03;;;12.25;65.16
41596;BME280;27283;52.504;13.358;2024-03-22T07:42:11;101227.00;;;12.27;66.55
41596;BME280;27283;52.504;13.358;2024-03-22T07:44:43;101230.72;;;12.18;67.74
41596;BME280;27283;52.504;13.358;2024-03-22T07:47:12;101221.69;;;12.76;65.56
41596;BME280;27283;52.504;13.358;2024-03-22T07:49:40;101228.75;;;12.69;67.64
41596;BME280;27283;52.504;13.358;2024-03-22T07:52:10;101217.78;;;12.54;65.98
41596;BME280;27283;52.504;13.358;2024-03-22T07:54:42;101229.13;;;12.91;63.74
41596;BME280;27283;52.504;13.358;2024-03-22T07:57:14;101217.28;;;13.00;64.97
41596;BME280;27283;52.504;13.358;2024-03-22T07:59:48;101211.88;;;12.51;65.18
41596;BME280;27283;52.504;13.358;2024-03-22T08:02:17;101218.81;;;12.78;64.97
41596;BME280;27283;52.504;13.358;2024-03-22T08:04:45;101213.91;;;12.90;64.91
41596;BME280;27283;52.504;13.358;2024-03-22T08:07:13;101210.16;;;13.24;62.83
41596;BME280;27283;52.504;13.358;2024-03-22T08:09:41;101200.44;;;12.65;64.75
41596;BME280;27283;52.504;13.358;2024-03-22T08:12:09;101194.97;;;13.15;63.02
41596;BME280;27283;52.504;13.358;2024-03-22T08:14:37;101202.28;;;12.89;64.47
41596;BME280;27283;52.504;13.358;2024-03-22T08:17:07;101194.38;;;12.88;65.04
41596;BME280;27283;52.504;13.358;2024-03-22T08:19:37;101206.59;;;13.32;62.25
41596;BME280;27283;52.504;13.358;2024-03-22T08:22:05;101199.19;;;13.34;62.64
41596;BME280;27283;52.504;13.358;2024-03-22T08:24:33;101191.50;;;12.65;64.63
41596;BME280;27283;52.504;13.358;2024-03-22T08:27:02;101194.63;;;13.34;62.78
41596;BME280;27283;52.504;13.358;2024-03-22T08:29:30;101195.63;;;13.41;62.81
41596;BME280;27283;52.504;13.358;2024-03-22T08:31:58;101190.78;;;13.12;64.82
41596;BME280;27283;52.504;13.358;2024-03-22T08:34:29;101184.28;;;13.54;62.78
41596;BME280;27283;52.504;13.358;2024-03-22T08:37:07;101174.31;;;13.46;61.88
41596;BME280;27283;52.504;13.358;2024-03-22T08:39:35;101171.19;;;13.18;62.84
41596;BME280;27283;52.504;13.358;2024-03-22T08:42:04;101163.94;;;13.19;63.34
41596;BME280;27283;52.504;13.358;2024-03-22T08:44:32;101155.97;;;13.73;61.47
41596;BME280;27283;52.504;13.358;2024-03-22T08:47:00;101154.97;;;13.26;64.33
41596;BME280;27283;52.504;13.358;2024-03-22T08:49:47;101149.38;;;13.76;61.74
41596;BME280;27283;52.504;13.358;2024-03-22T08:52:16;101139.22;;;13.46;61.45
41596;BME280;27283;52.504;13.358;2024-03-22T08:54:43;101144.81;;;13.28;65.22
41596;BME280;27283;52.504;13.358;2024-03-22T08:57:12;101131.81;;;13.80;60.28
41596;BME280;27283;52.504;13.358;2024-03-22T08:59:39;101125.22;;;14.06;59.45
41596;BME280;27283;52.504;13.358;2024-03-22T09:02:08;101120.91;;;14.58;58.34
41596;BME280;27283;52.504;13.358;2024-03-22T09:04:38;101125.00;;;14.53;58.06
41596;BME280;27283;52.504;13.358;2024-03-22T09:07:09;101121.13;;;14.10;59.81
41596;BME280;27283;52.504;13.358;2024-03-22T09:09:37;101122.25;;;14.15;60.90
41596;BME280;27283;52.504;13.358;2024-03-22T09:12:06;101131.78;;;14.73;58.19
41596;BME280;27283;52.504;13.358;2024-03-22T09:14:34;101120.44;;;14.31;59.59
41596;BME280;27283;52.504;13.358;2024-03-22T09:17:03;101125.44;;;14.42;58.57
41596;BME280;27283;52.504;13.358;2024-03-22T09:19:31;101119.00;;;14.43;61.63
41596;BME280;27283;52.504;13.358;2024-03-22T09:22:00;101103.66;;;14.35;60.08
41596;BME280;27283;52.504;13.358;2024-03-22T09:24:30;101096.03;;;14.01;62.47
41596;BME280;27283;52.504;13.358;2024-03-22T09:27:04;101088.22;;;14.97;59.37
41596;BME280;27283;52.504;13.358;2024-03-22T09:29:32;101092.50;;;14.62;58.23
41596;BME280;27283;52.504;13.358;2024-03-22T09:32:06;101091.84;;;14.75;57.84
41596;BME280;27283;52.504;13.358;2024-03-22T09:34:44;101097.63;;;14.71;59.69
41596;BME280;27283;52.504;13.358;2024-03-22T09:37:20;101108.66;;;14.85;59.45
41596;BME280;27283;52.504;13.358;2024-03-22T09:39:51;101102.34;;;14.54;59.33
41596;BME280;27283;52.504;13.358;2024-03-22T09:42:22;101097.16;;;15.28;57.13
41596;BME280;27283;52.504;13.358;2024-03-22T09:45:09;101088.53;;;15.54;55.17
41596;BME280;27283;52.504;13.358;2024-03-22T09:47:39;101087.13;;;15.58;56.36
41596;BME280;27283;52.504;13.358;2024-03-22T09:50:09;101085.03;;;15.75;56.95
41596;BME280;27283;52.504;13.358;2024-03-22T09:52:38;101079.16;;;15.56;57.33
41596;BME280;27283;52.504;13.358;2024-03-22T09:55:10;101082.44;;;15.52;56.99
41596;BME280;27283;52.504;13.358;2024-03-22T09:57:39;101084.28;;;15.66;57.55
41596;BME280;27283;52.504;13.358;2024-03-22T10:00:10;101074.25;;;15.82;57.78
41596;BME280;27283;52.504;13.358;2024-03-22T10:02:40;101071.00;;;15.71;59.54
41596;BME280;27283;52.504;13.358;2024-03-22T10:05:10;101076.69;;;15.91;56.87
41596;BME280;27283;52.504;13.358;2024-03-22T10:08:16;101067.91;;;15.74;55.68
41596;BME280;27283;52.504;13.358;2024-03-22T10:10:48;101069.78;;;15.74;56.55
41596;BME280;27283;52.504;13.358;2024-03-22T10:13:21;101060.13;;;15.86;56.21
41596;BME280;27283;52.504;13.358;2024-03-22T10:15:58;101066.56;;;16.28;53.96
41596;BME280;27283;52.504;13.358;2024-03-22T10:18:29;101060.72;;;16.53;54.21
41596;BME280;27283;52.504;13.358;2024-03-22T10:21:00;101053.09;;;16.42;54.20
41596;BME280;27283;52.504;13.358;2024-03-22T10:23:31;101043.97;;;16.78;53.50
41596;BME280;27283;52.504;13.358;2024-03-22T10:26:03;101046.47;;;16.79;53.73
41596;BME280;27283;52.504;13.358;2024-03-22T10:28:32;101047.28;;;16.45;54.06
41596;BME280;27283;52.504;13.358;2024-03-22T10:31:03;101038.56;;;15.78;56.37
41596;BME280;27283;52.504;13.358;2024-03-22T10:33:44;101045.69;;;16.01;57.11
41596;BME280;27283;52.504;13.358;2024-03-22T10:36:13;101034.00;;;15.64;55.90
41596;BME280;27283;52.504;13.358;2024-03-22T10:38:42;101041.63;;;15.90;57.56
41596;BME280;27283;52.504;13.358;2024-03-22T10:41:20;101034.28;;;16.12;55.83
41596;BME280;27283;52.504;13.358;2024-03-22T10:43:48;101033.81;;;16.58;54.96
41596;BME280;27283;52.504;13.358;2024-03-22T10:46:20;101037.38;;;16.94;53.69
41596;BME280;27283;52.504;13.358;2024-03-22T10:48:48;101031.19;;;17.75;49.14
41596;BME280;27283;52.504;13.358;2024-03-22T10:51:23;101022.28;;;17.20;50.89
41596;BME280;27283;52.504;13.358;2024-03-22T10:53:53;101022.41;;;17.05;53.08
41596;BME280;27283;52.504;13.358;2024-03-22T10:56:27;101024.53;;;18.45;48.58
41596;BME280;27283;52.504;13.358;2024-03-22T10:58:56;101007.13;;;18.52;47.20
41596;BME280;27283;52.504;13.358;2024-03-22T11:01:25;101011.16;;;18.23;48.67
41596;BME280;27283;52.504;13.358;2024-03-22T11:04:03;101004.47;;;17.92;48.27
41596;BME280;27283;52.504;13.358;2024-03-22T11:06:35;101005.94;;;18.01;49.36
41596;BME280;27283;52.504;13.358;2024-03-22T11:09:04;101002.56;;;18.26;51.56
41596;BME280;27283;52.504;13.358;2024-03-22T11:11:36;101005.28;;;18.39;47.68
41596;BME280;27283;52.504;13.358;2024-03-22T11:14:05;101004.81;;;17.69;50.09
41596;BME280;27283;52.504;13.358;2024-03-22T11:16:36;100984.75;;;18.57;46.61
41596;BME280;27283;52.504;13.358;2024-03-22T11:19:06;100984.47;;;17.38;51.08
41596;BME280;27283;52.504;13.358;2024-03-22T11:21:34;100971.09;;;17.43;48.92
41596;BME280;27283;52.504;13.358;2024-03-22T11:24:03;100976.28;;;16.83;51.14
41596;BME280;27283;52.504;13.358;2024-03-22T11:26:38;100980.03;;;17.24;50.10
41596;BME280;27283;52.504;13.358;2024-03-22T11:29:46;100985.94;;;16.16;53.42
41596;BME280;27283;52.504;13.358;2024-03-22T11:32:25;100985.91;;;15.87;54.72
41596;BME280;27283;52.504;13.358;2024-03-22T11:34:59;100977.91;;;16.07;53.19
41596;BME280;27283;52.504;13.358;2024-03-22T11:37:29;100972.22;;;15.16;56.25
41596;BME280;27283;52.504;13.358;2024-03-22T11:39:58;100973.03;;;15.31;56.04
41596;BME280;27283;52.504;13.358;2024-03-22T11:42:38;100976.16;;;15.13;56.75
41596;BME280;27283;52.504;13.358;2024-03-22T11:46:49;100973.09;;;14.86;58.31
41596;BME280;27283;52.504;13.358;2024-03-22T11:49:32;100957.91;;;15.65;56.54
41596;BME280;27283;52.504;13.358;2024-03-22T11:52:09;100959.91;;;15.35;58.01
41596;BME280;27283;52.504;13.358;2024-03-22T11:54:40;100965.31;;;15.13;60.06
41596;BME280;27283;52.504;13.358;2024-03-22T11:57:10;100959.09;;;14.98;62.37
41596;BME280;27283;52.504;13.358;2024-03-22T11:59:43;100962.72;;;15.41;65.06
41596;BME280;27283;52.504;13.358;2024-03-22T12:02:12;100954.88;;;15.10;64.42
41596;BME280;27283;52.504;13.358;2024-03-22T12:05:10;100947.13;;;15.29;65.56
41596;BME280;27283;52.504;13.358;2024-03-22T12:07:50;100946.22;;;15.21;65.86
41596;BME280;27283;52.504;13.358;2024-03-22T12:10:22;100943.53;;;14.70;70.80
41596;BME280;27283;52.504;13.358;2024-03-22T12:12:55;100935.38;;;13.95;71.52
41596;BME280;27283;52.504;13.358;2024-03-22T12:15:35;100940.13;;;14.08;71.22
41596;BME280;27283;52.504;13.358;2024-03-22T12:18:06;100923.94;;;14.38;72.27
41596;BME280;27283;52.504;13.358;2024-03-22T12:20:39;100921.88;;;14.40;74.91
41596;BME280;27283;52.504;13.358;2024-03-22T12:23:08;100924.50;;;14.78;74.21
41596;BME280;27283;52.504;13.358;2024-03-22T12:25:38;100924.56;;;14.55;74.54
41596;BME280;27283;52.504;13.358;2024-03-22T12:28:09;100922.34;;;14.59;73.78
41596;BME280;27283;52.504;13.358;2024-03-22T12:30:42;100920.97;;;14.48;76.67
41596;BME280;27283;52.504;13.358;2024-03-22T12:33:11;100915.25;;;14.43;77.57
41596;BME280;27283;52.504;13.358;2024-03-22T12:35:41;100913.03;;;14.16;80.12
41596;BME280;27283;52.504;13.358;2024-03-22T12:38:13;100911.16;;;14.17;77.61
41596;BME280;27283;52.504;13.358;2024-03-22T12:40:43;100919.81;;;13.97;80.46
41596;BME280;27283;52.504;13.358;2024-03-22T12:43:16;100926.34;;;13.42;79.83
41596;BME280;27283;52.504;13.358;2024-03-22T12:49:25;100900.84;;;13.82;81.14
41596;BME280;27283;52.504;13.358;2024-03-22T12:51:57;100896.06;;;14.38;77.56
41596;BME280;27283;52.504;13.358;2024-03-22T12:54:28;100894.53;;;14.50;78.60
41596;BME280;27283;52.504;13.358;2024-03-22T12:57:01;100899.75;;;13.92;78.71
41596;BME280;27283;52.504;13.358;2024-03-22T12:59:50;100902.94;;;13.95;82.11
41596;BME280;27283;52.504;13.358;2024-03-22T13:02:22;100896.84;;;13.78;81.91
41596;BME280;27283;52.504;13.358;2024-03-22T13:04:56;100900.31;;;14.02;81.64